Time;durP1;ratioP1;P1;durP2;ratioP2;P2;SDS_P1;SDS_P2;PMS_P1;PMS_P2;Temp;Humidity;BMP_temperature;BMP_pressure;BME280_temperature;BME280_humidity;BME280_pressure;Samples;Min_cycle;Max_cycle;Signal;HPM_P1;HPM_P2
2023/02/27 00:01:39;;;;;;;1999.90;999.90;;;;;;;;;;4985272;28;20490;-74
2023/02/27 00:04:24;;;;;;;1999.90;999.90;;;;;;;;;;4993444;28;20443;-74
2023/02/27 00:07:09;;;;;;;1999.90;999.90;;;;;;;;;;4993004;28;20848;-74
2023/02/27 00:09:54;;;;;;;1999.90;999.90;;;;;;;;;;4993496;28;20430;-74
2023/02/27 00:12:39;;;;;;;1999.90;999.90;;;;;;;;;;4981771;28;20459;-74
2023/02/27 00:15:24;;;;;;;1999.90;999.90;;;;;;;;;;4974364;28;20447;-73
2023/02/27 00:18:11;;;;;;;1999.90;999.90;;;;;;;;;;4974020;28;20470;-73
2023/02/27 00:20:56;;;;;;;1999.90;999.90;;;;;;;;;;4973876;28;20869;-75
2023/02/27 00:23:41;;;;;;;1999.90;999.90;;;;;;;;;;4973736;28;20990;-74
2023/02/27 00:26:26;;;;;;;1999.90;999.90;;;;;;;;;;4973311;28;20474;-75
2023/02/27 00:29:10;;;;;;;1999.90;999.90;;;;;;;;;;4973422;28;20433;-74
2023/02/27 00:31:55;;;;;;;1999.90;999.90;;;;;;;;;;4980319;28;20427;-74
2023/02/27 00:34:42;;;;;;;1999.90;999.90;;;;;;;;;;4973591;28;20454;-73
2023/02/27 00:37:27;;;;;;;1999.90;999.90;;;;;;;;;;4973406;28;20864;-75
2023/02/27 00:40:12;;;;;;;1999.90;999.90;;;;;;;;;;4981883;28;20427;-74
2023/02/27 00:42:57;;;;;;;1999.90;999.90;;;;;;;;;;4985074;28;20447;-74
2023/02/27 00:45:42;;;;;;;1999.90;999.90;;;;;;;;;;4980122;28;20509;-74
2023/02/27 00:48:27;;;;;;;1999.90;999.90;;;;;;;;;;4986446;28;20430;-74
2023/02/27 00:51:13;;;;;;;1999.90;999.90;;;;;;;;;;4991865;28;20454;-74
2023/02/27 00:53:58;;;;;;;1999.90;999.90;;;;;;;;;;4984895;28;20472;-74
2023/02/27 00:56:43;;;;;;;1999.90;999.90;;;;;;;;;;4991443;28;20423;-74
2023/02/27 00:59:28;;;;;;;1999.90;999.90;;;;;;;;;;4981314;28;20803;-74
2023/02/27 01:02:13;;;;;;;1999.90;999.90;;;;;;;;;;4973133;28;20424;-74
2023/02/27 01:04:58;;;;;;;1999.90;999.90;;;;;;;;;;4987071;28;20426;-72
2023/02/27 01:07:44;;;;;;;1999.90;999.90;;;;;;;;;;4972884;28;20484;-73
2023/02/27 01:10:29;;;;;;;1999.90;999.90;;;;;;;;;;4975187;28;20442;-74
2023/02/27 01:13:14;;;;;;;1999.90;999.90;;;;;;;;;;4973771;28;20539;-74
2023/02/27 01:15:59;;;;;;;1999.90;999.90;;;;;;;;;;4985726;28;20439;-74
2023/02/27 01:18:44;;;;;;;1999.90;999.90;;;;;;;;;;4973173;28;20427;-74
2023/02/27 01:21:29;;;;;;;1999.90;999.90;;;;;;;;;;4975721;28;20554;-74
2023/02/27 01:24:15;;;;;;;1999.90;999.90;;;;;;;;;;4980286;28;20571;-72
2023/02/27 01:27:01;;;;;;;1999.90;999.90;;;;;;;;;;4978569;28;20477;-74
2023/02/27 01:29:46;;;;;;;1999.90;999.90;;;;;;;;;;4984322;28;20475;-74
2023/02/27 01:32:30;;;;;;;1999.90;999.90;;;;;;;;;;4998690;28;20457;-74
2023/02/27 01:35:16;;;;;;;1999.90;999.90;;;;;;;;;;4997421;28;20505;-72
2023/02/27 01:38:01;;;;;;;1999.90;999.90;;;;;;;;;;4985757;28;20428;-75
2023/02/27 01:40:48;;;;;;;1999.90;999.90;;;;;;;;;;4979477;28;20476;-74
2023/02/27 01:43:33;;;;;;;1999.90;999.90;;;;;;;;;;4979310;28;20452;-74
2023/02/27 01:46:18;;;;;;;1999.90;999.90;;;;;;;;;;4987369;28;21053;-74
2023/02/27 01:49:05;;;;;;;1999.90;999.90;;;;;;;;;;4985485;28;20489;-74
2023/02/27 01:51:52;;;;;;;1999.90;999.90;;;;;;;;;;4984151;28;20457;-74
2023/02/27 01:54:39;;;;;;;1999.90;999.90;;;;;;;;;;4986749;28;20804;-75
2023/02/27 01:57:26;;;;;;;1999.90;999.90;;;;;;;;;;4988513;28;20506;-74
2023/02/27 02:00:12;;;;;;;1999.90;999.90;;;;;;;;;;4997492;28;21009;-74
2023/02/27 02:03:00;;;;;;;1999.90;999.90;;;;;;;;;;4985483;28;20481;-74
2023/02/27 02:05:46;;;;;;;1999.90;999.90;;;;;;;;;;4988439;28;20550;-74
2023/02/27 02:08:32;;;;;;;1999.90;999.90;;;;;;;;;;4988598;28;20446;-72
2023/02/27 02:11:18;;;;;;;1999.90;999.90;;;;;;;;;;4978882;28;20410;-75
2023/02/27 02:14:09;;;;;;;1999.90;999.90;;;;;;;;;;4983238;28;20236;-70
2023/02/27 02:17:12;;;;;;;1999.90;999.90;;;;;;;;;;4980564;28;20433;-72
2023/02/27 02:20:16;;;;;;;1999.90;999.90;;;;;;;;;;4997351;28;20857;-73
2023/02/27 02:23:19;;;;;;;1999.90;999.90;;;;;;;;;;4978849;28;20526;-74
2023/02/27 02:26:19;;;;;;;1999.90;999.90;;;;;;;;;;4994377;28;20491;-75
2023/02/27 02:29:25;;;;;;;1999.90;999.90;;;;;;;;;;4989428;28;20469;-74
2023/02/27 02:32:34;;;;;;;1999.90;999.90;;;;;;;;;;4983468;28;20578;-74
2023/02/27 02:35:34;;;;;;;1999.90;999.90;;;;;;;;;;4975901;28;20548;-74
2023/02/27 02:38:37;;;;;;;1999.90;999.90;;;;;;;;;;4978509;28;20977;-74
2023/02/27 02:41:29;;;;;;;1999.90;999.90;;;;;;;;;;4987126;28;20252;-72
2023/02/27 02:44:18;;;;;;;1999.90;999.90;;;;;;;;;;4979016;28;20586;-74
2023/02/27 02:47:05;;;;;;;1999.90;999.90;;;;;;;;;;4978550;28;20458;-75
2023/02/27 02:49:56;;;;;;;1999.90;999.90;;;;;;;;;;4981624;28;20476;-74
2023/02/27 02:52:47;;;;;;;1999.90;999.90;;;;;;;;;;4979342;28;20834;-75
2023/02/27 02:55:34;;;;;;;1999.90;999.90;;;;;;;;;;4994736;28;20402;-73
2023/02/27 02:58:22;;;;;;;1999.90;999.90;;;;;;;;;;4994888;28;20505;-72
2023/02/27 03:01:11;;;;;;;1999.90;999.90;;;;;;;;;;4994093;28;20459;-73
2023/02/27 03:03:58;;;;;;;1999.90;999.90;;;;;;;;;;4987543;28;20838;-73
2023/02/27 03:06:46;;;;;;;1999.90;999.90;;;;;;;;;;4983099;28;20454;-69
2023/02/27 03:09:33;;;;;;;1999.90;999.90;;;;;;;;;;4975627;28;20571;-73
2023/02/27 03:12:21;;;;;;;1999.90;999.90;;;;;;;;;;4975480;28;20571;-72
2023/02/27 03:15:12;;;;;;;1999.90;999.90;;;;;;;;;;4975258;28;20414;-74
2023/02/27 03:18:01;;;;;;;1999.90;999.90;;;;;;;;;;4982939;28;20473;-74
2023/02/27 03:20:48;;;;;;;1999.90;999.90;;;;;;;;;;4979694;28;20454;-69
2023/02/27 03:23:36;;;;;;;1999.90;999.90;;;;;;;;;;4993487;28;20569;-69
2023/02/27 03:26:24;;;;;;;1999.90;999.90;;;;;;;;;;4993147;28;20419;-75
2023/02/27 03:29:10;;;;;;;1999.90;999.90;;;;;;;;;;4989329;28;20431;-74
2023/02/27 03:31:59;;;;;;;1999.90;999.90;;;;;;;;;;4978634;28;20461;-74
2023/02/27 03:34:44;;;;;;;1999.90;999.90;;;;;;;;;;4985906;28;20435;-75
2023/02/27 03:37:32;;;;;;;1999.90;999.90;;;;;;;;;;4978081;28;20795;-74
2023/02/27 03:40:23;;;;;;;1999.90;999.90;;;;;;;;;;4976601;28;20807;-74
2023/02/27 03:43:13;;;;;;;1999.90;999.90;;;;;;;;;;4988543;28;20493;-73
2023/02/27 03:46:00;;;;;;;1999.90;999.90;;;;;;;;;;4974266;28;20509;-73
2023/02/27 03:48:47;;;;;;;1999.90;999.90;;;;;;;;;;4977070;28;20830;-75
2023/02/27 03:51:32;;;;;;;1999.90;999.90;;;;;;;;;;4982736;28;20427;-73
2023/02/27 03:54:20;;;;;;;1999.90;999.90;;;;;;;;;;4974590;28;20463;-74
2023/02/27 03:57:05;;;;;;;1999.90;999.90;;;;;;;;;;4973733;28;21050;-71
2023/02/27 03:59:52;;;;;;;1999.90;999.90;;;;;;;;;;4979655;28;20598;-71
2023/02/27 04:02:38;;;;;;;1999.90;999.90;;;;;;;;;;4982086;28;20454;-76
2023/02/27 04:05:24;;;;;;;1999.90;999.90;;;;;;;;;;4974487;28;20497;-75
2023/02/27 04:08:24;;;;;;;1999.90;999.90;;;;;;;;;;4988730;28;20460;-76
2023/02/27 04:11:26;;;;;;;1999.90;999.90;;;;;;;;;;4983755;28;20448;-75
2023/02/27 04:14:17;;;;;;;1999.90;999.90;;;;;;;;;;4981763;28;20613;-73
2023/02/27 04:17:14;;;;;;;1999.90;999.90;;;;;;;;;;4985865;28;21002;-76
2023/02/27 04:20:21;;;;;;;1999.90;999.90;;;;;;;;;;4981983;28;20581;-75
2023/02/27 04:23:10;;;;;;;1999.90;999.90;;;;;;;;;;4987445;28;20508;-76
2023/02/27 04:26:00;;;;;;;1999.90;999.90;;;;;;;;;;4984157;28;20357;-77
2023/02/27 04:28:48;;;;;;;1999.90;999.90;;;;;;;;;;4973757;28;21077;-76
2023/02/27 04:31:40;;;;;;;1999.90;999.90;;;;;;;;;;4981857;28;20445;-76
2023/02/27 04:34:28;;;;;;;1999.90;999.90;;;;;;;;;;4974220;28;20459;-76
2023/02/27 04:37:15;;;;;;;1999.90;999.90;;;;;;;;;;4984833;28;20422;-75
2023/02/27 04:40:05;;;;;;;1999.90;999.90;;;;;;;;;;4992193;28;20464;-76
2023/02/27 04:42:53;;;;;;;1999.90;999.90;;;;;;;;;;4973829;28;20449;-76
2023/02/27 04:45:41;;;;;;;1999.90;999.90;;;;;;;;;;4981415;28;20517;-76
2023/02/27 04:48:29;;;;;;;1999.90;999.90;;;;;;;;;;4987288;28;20481;-75
2023/02/27 04:51:15;;;;;;;1999.90;999.90;;;;;;;;;;4985009;28;20445;-76
2023/02/27 04:54:03;;;;;;;1999.90;999.90;;;;;;;;;;4989444;28;20603;-76
2023/02/27 04:56:52;;;;;;;1999.90;999.90;;;;;;;;;;4981167;28;20430;-77
2023/02/27 04:59:39;;;;;;;1999.90;999.90;;;;;;;;;;4975203;28;20466;-76
2023/02/27 05:02:26;;;;;;;1999.90;999.90;;;;;;;;;;4976249;28;20446;-75
2023/02/27 05:05:13;;;;;;;1999.90;999.90;;;;;;;;;;4991726;28;20992;-75
2023/02/27 05:08:01;;;;;;;1999.90;999.90;;;;;;;;;;4982536;28;20456;-76
2023/02/27 05:10:49;;;;;;;1999.90;999.90;;;;;;;;;;4980346;28;20449;-76
2023/02/27 05:13:37;;;;;;;1999.90;999.90;;;;;;;;;;4983790;28;20541;-76
2023/02/27 05:16:25;;;;;;;1999.90;999.90;;;;;;;;;;4985083;28;20449;-75
2023/02/27 05:19:10;;;;;;;1999.90;999.90;;;;;;;;;;4990960;28;20425;-76
2023/02/27 05:22:00;;;;;;;1999.90;999.90;;;;;;;;;;4985664;28;20905;-74
2023/02/27 05:24:49;;;;;;;1999.90;999.90;;;;;;;;;;4979310;28;20422;-76
2023/02/27 05:27:37;;;;;;;1999.90;999.90;;;;;;;;;;4983980;28;20477;-76
2023/02/27 05:30:26;;;;;;;1999.90;999.90;;;;;;;;;;4985028;28;20952;-75
2023/02/27 05:33:14;;;;;;;1999.90;999.90;;;;;;;;;;4990779;28;21036;-74
2023/02/27 05:36:02;;;;;;;1999.90;999.90;;;;;;;;;;4984678;28;20419;-74
2023/02/27 05:38:49;;;;;;;1999.90;999.90;;;;;;;;;;4976052;28;20478;-71
2023/02/27 05:41:36;;;;;;;1999.90;999.90;;;;;;;;;;4973592;28;20407;-74
2023/02/27 05:44:23;;;;;;;1999.90;999.90;;;;;;;;;;4986809;28;20226;-74
2023/02/27 05:47:12;;;;;;;1999.90;999.90;;;;;;;;;;4984100;28;20459;-76
2023/02/27 05:49:58;;;;;;;1999.90;999.90;;;;;;;;;;4981058;28;20955;-74
2023/02/27 05:52:44;;;;;;;1999.90;999.90;;;;;;;;;;4972789;28;20975;-76
2023/02/27 05:55:32;;;;;;;1999.90;999.90;;;;;;;;;;4975050;28;20421;-76
2023/02/27 05:58:19;;;;;;;1999.90;999.90;;;;;;;;;;4985327;28;20496;-72
2023/02/27 06:01:05;;;;;;;1999.90;999.90;;;;;;;;;;4985590;28;20421;-71
2023/02/27 06:03:52;;;;;;;1999.90;999.90;;;;;;;;;;4984154;28;20464;-74
2023/02/27 06:06:40;;;;;;;1999.90;999.90;;;;;;;;;;4991002;28;20502;-75
2023/02/27 06:09:25;;;;;;;1999.90;999.90;;;;;;;;;;4987538;28;20740;-76
2023/02/27 06:12:10;;;;;;;1999.90;999.90;;;;;;;;;;4982363;28;20422;-76
2023/02/27 06:14:55;;;;;;;1999.90;999.90;;;;;;;;;;4984336;28;20953;-76
2023/02/27 06:17:40;;;;;;;1999.90;999.90;;;;;;;;;;4994225;28;20425;-76
2023/02/27 06:20:26;;;;;;;1999.90;999.90;;;;;;;;;;4987892;28;20530;-74
2023/02/27 06:23:12;;;;;;;1999.90;999.90;;;;;;;;;;4990418;28;20453;-74
2023/02/27 06:25:58;;;;;;;1999.90;999.90;;;;;;;;;;4995642;28;20412;-77
2023/02/27 06:28:43;;;;;;;1999.90;999.90;;;;;;;;;;4995577;28;20472;-73
2023/02/27 06:31:28;;;;;;;1999.90;999.90;;;;;;;;;;4995727;28;20422;-71
2023/02/27 06:34:13;;;;;;;1999.90;999.90;;;;;;;;;;4996154;28;20440;-70
2023/02/27 06:36:59;;;;;;;1999.90;999.90;;;;;;;;;;4995615;28;20796;-73
2023/02/27 06:39:45;;;;;;;1999.90;999.90;;;;;;;;;;4975785;28;20438;-71
2023/02/27 06:42:30;;;;;;;1999.90;999.90;;;;;;;;;;4975788;28;20446;-74
2023/02/27 06:45:15;;;;;;;1999.90;999.90;;;;;;;;;;4976020;28;20498;-73
2023/02/27 06:48:01;;;;;;;1999.90;999.90;;;;;;;;;;4975631;28;20474;-75
2023/02/27 06:50:46;;;;;;;1999.90;999.90;;;;;;;;;;4987598;28;20411;-73
2023/02/27 06:53:32;;;;;;;1999.90;999.90;;;;;;;;;;4975730;28;20521;-75
2023/02/27 06:56:17;;;;;;;1999.90;999.90;;;;;;;;;;4975800;28;20681;-75
2023/02/27 06:59:02;;;;;;;1999.90;999.90;;;;;;;;;;4976163;28;20435;-75
2023/02/27 07:01:47;;;;;;;1999.90;999.90;;;;;;;;;;4986284;28;20926;-74
2023/02/27 07:04:33;;;;;;;1999.90;999.90;;;;;;;;;;4993501;28;20941;-76
2023/02/27 07:07:18;;;;;;;1999.90;999.90;;;;;;;;;;4984335;28;20423;-73
2023/02/27 07:10:05;;;;;;;1999.90;999.90;;;;;;;;;;4975281;28;20407;-73
2023/02/27 07:12:50;;;;;;;1999.90;999.90;;;;;;;;;;4984739;28;21015;-72
2023/02/27 07:15:36;;;;;;;1999.90;999.90;;;;;;;;;;4988532;28;20922;-73
2023/02/27 07:18:20;;;;;;;1999.90;999.90;;;;;;;;;;4987925;28;20428;-73
2023/02/27 07:21:06;;;;;;;1999.90;999.90;;;;;;;;;;4981635;28;20833;-68
2023/02/27 07:23:51;;;;;;;1999.90;999.90;;;;;;;;;;4989614;28;20473;-72
2023/02/27 07:26:37;;;;;;;1999.90;999.90;;;;;;;;;;4981303;28;21014;-70
2023/02/27 07:29:22;;;;;;;1999.90;999.90;;;;;;;;;;4981411;28;20482;-72
2023/02/27 07:32:07;;;;;;;1999.90;999.90;;;;;;;;;;4982267;28;20408;-72
2023/02/27 07:34:52;;;;;;;1999.90;999.90;;;;;;;;;;4993326;28;20818;-72
2023/02/27 07:37:37;;;;;;;1999.90;999.90;;;;;;;;;;4993681;28;20419;-69
2023/02/27 07:40:22;;;;;;;1999.90;999.90;;;;;;;;;;4987559;28;20429;-72
2023/02/27 07:43:09;;;;;;;1999.90;999.90;;;;;;;;;;4993015;28;20446;-68
2023/02/27 07:45:54;;;;;;;1999.90;999.90;;;;;;;;;;4993150;28;20433;-71
2023/02/27 07:48:39;;;;;;;1999.90;999.90;;;;;;;;;;4985241;28;20219;-71
2023/02/27 07:51:24;;;;;;;1999.90;999.90;;;;;;;;;;4984326;28;20569;-73
2023/02/27 07:54:09;;;;;;;1999.90;999.90;;;;;;;;;;4982893;28;20303;-73
2023/02/27 07:56:54;;;;;;;1999.90;999.90;;;;;;;;;;4985955;28;20211;-75
2023/02/27 07:59:40;;;;;;;1999.90;999.90;;;;;;;;;;4978006;28;20702;-74
2023/02/27 08:02:25;;;;;;;1999.90;999.90;;;;;;;;;;4984222;28;20311;-73
2023/02/27 08:05:10;;;;;;;1999.90;999.90;;;;;;;;;;4984240;28;20279;-71
2023/02/27 08:07:55;;;;;;;1999.90;999.90;;;;;;;;;;4980580;28;20224;-72
2023/02/27 08:10:40;;;;;;;1999.90;999.90;;;;;;;;;;4973519;28;20212;-72
2023/02/27 08:13:25;;;;;;;1999.90;999.90;;;;;;;;;;4983307;28;20231;-72
2023/02/27 08:16:11;;;;;;;1999.90;999.90;;;;;;;;;;4983800;28;20223;-73
2023/02/27 08:18:56;;;;;;;1999.90;999.90;;;;;;;;;;4980124;28;20204;-73
2023/02/27 08:21:41;;;;;;;1999.90;999.90;;;;;;;;;;4985938;28;20710;-74
2023/02/27 08:24:26;;;;;;;1999.90;999.90;;;;;;;;;;4978744;28;20289;-73
2023/02/27 08:27:11;;;;;;;1999.90;999.90;;;;;;;;;;4981533;28;20804;-72
2023/02/27 08:29:56;;;;;;;1999.90;999.90;;;;;;;;;;4981002;28;20231;-72
2023/02/27 08:32:44;;;;;;;1999.90;999.90;;;;;;;;;;4983245;28;20235;-72
2023/02/27 08:35:29;;;;;;;1999.90;999.90;;;;;;;;;;4986564;28;20576;-73
2023/02/27 08:38:14;;;;;;;1999.90;999.90;;;;;;;;;;4978635;28;20425;-76
2023/02/27 08:40:59;;;;;;;1999.90;999.90;;;;;;;;;;4979897;28;20453;-73
2023/02/27 08:43:44;;;;;;;1999.90;999.90;;;;;;;;;;4977281;28;20356;-73
2023/02/27 08:46:29;;;;;;;1999.90;999.90;;;;;;;;;;4986478;28;20455;-73
2023/02/27 08:49:15;;;;;;;1999.90;999.90;;;;;;;;;;4975062;28;20477;-72
2023/02/27 08:52:02;;;;;;;1999.90;999.90;;;;;;;;;;4976473;28;20456;-72
2023/02/27 08:54:47;;;;;;;1999.90;999.90;;;;;;;;;;4981099;28;20425;-73
2023/02/27 08:57:32;;;;;;;1999.90;999.90;;;;;;;;;;4981549;28;20448;-74
2023/02/27 09:00:18;;;;;;;1999.90;999.90;;;;;;;;;;4977952;28;20926;-74
2023/02/27 09:03:03;;;;;;;1999.90;999.90;;;;;;;;;;4982620;28;20456;-74
2023/02/27 09:05:49;;;;;;;1999.90;999.90;;;;;;;;;;4979685;28;20449;-72
2023/02/27 09:08:34;;;;;;;1999.90;999.90;;;;;;;;;;4981787;28;21016;-71
2023/02/27 09:11:19;;;;;;;1999.90;999.90;;;;;;;;;;4984545;28;20603;-74
2023/02/27 09:14:04;;;;;;;1999.90;999.90;;;;;;;;;;4980370;28;20231;-73
2023/02/27 09:16:49;;;;;;;1999.90;999.90;;;;;;;;;;4983716;28;20214;-72
2023/02/27 09:19:35;;;;;;;1999.90;999.90;;;;;;;;;;4977322;28;20207;-73
2023/02/27 09:22:21;;;;;;;1999.90;999.90;;;;;;;;;;4979379;28;20252;-73
2023/02/27 09:25:06;;;;;;;1999.90;999.90;;;;;;;;;;4981254;28;20255;-72
2023/02/27 09:27:51;;;;;;;1999.90;999.90;;;;;;;;;;4982344;28;20211;-73
2023/02/27 09:30:36;;;;;;;1999.90;999.90;;;;;;;;;;4978594;28;20202;-73
2023/02/27 09:33:21;;;;;;;1999.90;999.90;;;;;;;;;;4980208;28;20436;-72
2023/02/27 09:36:06;;;;;;;1999.90;999.90;;;;;;;;;;4978023;28;20755;-73
2023/02/27 09:38:53;;;;;;;1999.90;999.90;;;;;;;;;;4978928;28;20220;-72
2023/02/27 09:41:53;;;;;;;1999.90;999.90;;;;;;;;;;4977019;28;20279;-73
2023/02/27 09:44:40;;;;;;;1999.90;999.90;;;;;;;;;;4980224;28;20207;-72
2023/02/27 09:47:28;;;;;;;1999.90;999.90;;;;;;;;;;4984194;28;20211;-73
2023/02/27 09:50:21;;;;;;;1999.90;999.90;;;;;;;;;;4986691;28;20347;-73
2023/02/27 09:53:10;;;;;;;1999.90;999.90;;;;;;;;;;4982969;28;20224;-75
2023/02/27 09:55:59;;;;;;;1999.90;999.90;;;;;;;;;;4982186;28;20704;-73
2023/02/27 09:58:47;;;;;;;1999.90;999.90;;;;;;;;;;4981430;28;20274;-72
2023/02/27 10:01:34;;;;;;;1999.90;999.90;;;;;;;;;;4983873;28;20712;-73
2023/02/27 10:04:27;;;;;;;1999.90;999.90;;;;;;;;;;4985531;28;20247;-73
2023/02/27 10:07:16;;;;;;;1999.90;999.90;;;;;;;;;;4981416;28;20215;-74
2023/02/27 10:10:07;;;;;;;1999.90;999.90;;;;;;;;;;4985933;28;20740;-73
2023/02/27 10:12:58;;;;;;;1999.90;999.90;;;;;;;;;;4981724;28;20235;-73
2023/02/27 10:15:46;;;;;;;1999.90;999.90;;;;;;;;;;4978470;28;20425;-73
2023/02/27 10:18:33;;;;;;;1999.90;999.90;;;;;;;;;;4979022;28;20215;-71
2023/02/27 10:21:19;;;;;;;1999.90;999.90;;;;;;;;;;4983845;28;20346;-74
2023/02/27 10:24:07;;;;;;;1999.90;999.90;;;;;;;;;;4977225;28;20232;-70
2023/02/27 10:26:53;;;;;;;1999.90;999.90;;;;;;;;;;4977881;28;20583;-74
2023/02/27 10:29:41;;;;;;;1999.90;999.90;;;;;;;;;;4978046;28;20268;-74
2023/02/27 10:32:28;;;;;;;1999.90;999.90;;;;;;;;;;4983612;28;20760;-73
2023/02/27 10:35:21;;;;;;;1999.90;999.90;;;;;;;;;;4991676;28;20228;-73
2023/02/27 10:38:08;;;;;;;1999.90;999.90;;;;;;;;;;4984903;28;20204;-72
2023/02/27 10:40:54;;;;;;;1999.90;999.90;;;;;;;;;;4984553;28;20211;-73
2023/02/27 10:43:40;;;;;;;1999.90;999.90;;;;;;;;;;4994934;28;20227;-72
2023/02/27 10:46:27;;;;;;;1999.90;999.90;;;;;;;;;;4994971;28;20203;-73
2023/02/27 10:49:14;;;;;;;1999.90;999.90;;;;;;;;;;4994963;28;20607;-72
2023/02/27 10:52:09;;;;;;;1999.90;999.90;;;;;;;;;;4995159;28;20266;-74
2023/02/27 10:54:55;;;;;;;1999.90;999.90;;;;;;;;;;4995060;28;20184;-72
2023/02/27 10:57:41;;;;;;;1999.90;999.90;;;;;;;;;;4994740;28;20334;-73
2023/02/27 11:00:30;;;;;;;1999.90;999.90;;;;;;;;;;4995016;28;20227;-72
2023/02/27 11:03:21;;;;;;;1999.90;999.90;;;;;;;;;;4994861;28;20362;-72
2023/02/27 11:06:09;;;;;;;1999.90;999.90;;;;;;;;;;4994703;28;20259;-73
2023/02/27 11:09:09;;;;;;;1999.90;999.90;;;;;;;;;;4994815;28;20207;-73
2023/02/27 11:11:54;;;;;;;1999.90;999.90;;;;;;;;;;4994928;28;20259;-75
2023/02/27 11:14:48;;;;;;;1999.90;999.90;;;;;;;;;;4994791;28;20680;-72
2023/02/27 11:17:35;;;;;;;1999.90;999.90;;;;;;;;;;4992960;28;20522;-72
2023/02/27 11:20:36;;;;;;;1999.90;999.90;;;;;;;;;;4994629;28;20211;-72
2023/02/27 11:23:21;;;;;;;1999.90;999.90;;;;;;;;;;4994379;28;20227;-72
2023/02/27 11:26:11;;;;;;;1999.90;999.90;;;;;;;;;;4994749;28;20207;-73
2023/02/27 11:29:13;;;;;;;1999.90;999.90;;;;;;;;;;4994576;28;20699;-72
2023/02/27 11:32:01;;;;;;;1999.90;999.90;;;;;;;;;;4994477;28;20594;-72
2023/02/27 11:34:48;;;;;;;1999.90;999.90;;;;;;;;;;4994507;28;20270;-74
2023/02/27 11:37:36;;;;;;;1999.90;999.90;;;;;;;;;;4994243;28;20213;-72
2023/02/27 11:40:22;;;;;;;1999.90;999.90;;;;;;;;;;4994354;28;20202;-73
2023/02/27 11:43:15;;;;;;;1999.90;999.90;;;;;;;;;;4994087;28;20247;-72
2023/02/27 11:46:01;;;;;;;1999.90;999.90;;;;;;;;;;4994065;28;20208;-72
2023/02/27 11:48:47;;;;;;;1999.90;999.90;;;;;;;;;;4994116;28;20223;-72
2023/02/27 11:51:41;;;;;;;1999.90;999.90;;;;;;;;;;4993799;28;20198;-72
2023/02/27 11:54:35;;;;;;;1999.90;999.90;;;;;;;;;;4993706;28;20211;-71
2023/02/27 11:57:23;;;;;;;1999.90;999.90;;;;;;;;;;4993493;28;20262;-72
2023/02/27 12:00:15;;;;;;;1999.90;999.90;;;;;;;;;;4993883;28;20203;-72
2023/02/27 12:03:03;;;;;;;1999.90;999.90;;;;;;;;;;4993424;28;20301;-72
2023/02/27 12:05:50;;;;;;;1999.90;999.90;;;;;;;;;;4993676;28;20295;-72
2023/02/27 12:08:41;;;;;;;1999.90;999.90;;;;;;;;;;4993829;28;20586;-72
2023/02/27 12:11:28;;;;;;;1999.90;999.90;;;;;;;;;;4993663;28;20251;-73
2023/02/27 12:14:16;;;;;;;1999.90;999.90;;;;;;;;;;4993725;28;20731;-72
2023/02/27 12:17:02;;;;;;;1999.90;999.90;;;;;;;;;;4993546;28;20281;-72
2023/02/27 12:19:52;;;;;;;1999.90;999.90;;;;;;;;;;4993656;28;20243;-72
2023/02/27 12:22:41;;;;;;;1999.90;999.90;;;;;;;;;;4993434;28;20223;-71
2023/02/27 12:25:30;;;;;;;1999.90;999.90;;;;;;;;;;4993381;28;20302;-72
2023/02/27 12:28:22;;;;;;;1999.90;999.90;;;;;;;;;;4993040;28;20582;-72
2023/02/27 12:31:22;;;;;;;1999.90;999.90;;;;;;;;;;4993192;28;20775;-72
2023/02/27 12:34:11;;;;;;;1999.90;999.90;;;;;;;;;;4993148;28;20227;-73
2023/02/27 12:36:59;;;;;;;1999.90;999.90;;;;;;;;;;4993023;28;20781;-72
2023/02/27 12:39:46;;;;;;;1999.90;999.90;;;;;;;;;;4993204;28;20283;-72
2023/02/27 12:42:40;;;;;;;1999.90;999.90;;;;;;;;;;4993172;28;20232;-72
2023/02/27 12:45:42;;;;;;;1999.90;999.90;;;;;;;;;;4992958;28;20189;-72
2023/02/27 12:48:38;;;;;;;1999.90;999.90;;;;;;;;;;4992945;28;20251;-73
2023/02/27 12:51:31;;;;;;;1999.90;999.90;;;;;;;;;;4992863;28;20228;-72
2023/02/27 12:54:24;;;;;;;1999.90;999.90;;;;;;;;;;4992844;28;20226;-72
2023/02/27 12:57:17;;;;;;;1999.90;999.90;;;;;;;;;;4992705;28;20206;-72
2023/02/27 13:00:10;;;;;;;1999.90;999.90;;;;;;;;;;4992635;28;20410;-72
2023/02/27 13:03:02;;;;;;;1999.90;999.90;;;;;;;;;;4992715;28;20367;-73
2023/02/27 13:05:51;;;;;;;1999.90;999.90;;;;;;;;;;4992746;28;20343;-73
2023/02/27 13:09:00;;;;;;;1999.90;999.90;;;;;;;;;;4992719;28;20208;-75
2023/02/27 13:11:48;;;;;;;1999.90;999.90;;;;;;;;;;4992455;28;20191;-72
2023/02/27 13:14:42;;;;;;;1999.90;999.90;;;;;;;;;;4992513;28;20707;-72
2023/02/27 13:17:31;;;;;;;1999.90;999.90;;;;;;;;;;4992246;28;20208;-72
2023/02/27 13:20:25;;;;;;;1999.90;999.90;;;;;;;;;;4992176;28;20207;-72
2023/02/27 13:23:16;;;;;;;1999.90;999.90;;;;;;;;;;4992676;28;20756;-71
2023/02/27 13:26:01;;;;;;;1999.90;999.90;;;;;;;;;;4992431;28;20212;-72
2023/02/27 13:28:46;;;;;;;1999.90;999.90;;;;;;;;;;4992499;28;20274;-72
2023/02/27 13:31:34;;;;;;;1999.90;999.90;;;;;;;;;;4992185;28;20231;-73
2023/02/27 13:34:22;;;;;;;1999.90;999.90;;;;;;;;;;4992653;28;20305;-72
2023/02/27 13:37:09;;;;;;;1999.90;999.90;;;;;;;;;;4992207;28;20236;-73
2023/02/27 13:40:00;;;;;;;1999.90;999.90;;;;;;;;;;4992420;28;20210;-72
2023/02/27 13:42:56;;;;;;;1999.90;999.90;;;;;;;;;;4992433;28;20220;-72
2023/02/27 13:45:52;;;;;;;1999.90;999.90;;;;;;;;;;4991974;28;20205;-72
2023/02/27 13:48:41;;;;;;;1999.90;999.90;;;;;;;;;;4992375;28;20569;-72
2023/02/27 13:51:55;;;;;;;1999.90;999.90;;;;;;;;;;4992049;28;20835;-73
2023/02/27 13:54:41;;;;;;;1999.90;999.90;;;;;;;;;;4992250;28;20216;-72
2023/02/27 13:57:27;;;;;;;1999.90;999.90;;;;;;;;;;4992024;28;20268;-72
2023/02/27 14:00:20;;;;;;;1999.90;999.90;;;;;;;;;;4992681;28;20200;-73
2023/02/27 14:03:07;;;;;;;1999.90;999.90;;;;;;;;;;4992009;28;20229;-73
2023/02/27 14:05:54;;;;;;;1999.90;999.90;;;;;;;;;;4992234;28;20203;-70
2023/02/27 14:08:47;;;;;;;1999.90;999.90;;;;;;;;;;4992392;28;20690;-72
2023/02/27 14:11:38;;;;;;;1999.90;999.90;;;;;;;;;;4991908;28;20245;-72
2023/02/27 14:14:38;;;;;;;1999.90;999.90;;;;;;;;;;4992023;28;20300;-72
2023/02/27 14:17:40;;;;;;;1999.90;999.90;;;;;;;;;;4992140;28;20214;-73
2023/02/27 14:20:39;;;;;;;1999.90;999.90;;;;;;;;;;4991892;28;20201;-72
2023/02/27 14:23:25;;;;;;;1999.90;999.90;;;;;;;;;;4992007;28;20594;-72
2023/02/27 14:26:14;;;;;;;1999.90;999.90;;;;;;;;;;4991793;28;20569;-72
2023/02/27 14:29:00;;;;;;;1999.90;999.90;;;;;;;;;;4992210;28;20205;-72
2023/02/27 14:31:45;;;;;;;1999.90;999.90;;;;;;;;;;4993821;28;20611;-74
2023/02/27 14:34:31;;;;;;;1999.90;999.90;;;;;;;;;;4995555;28;20252;-72
2023/02/27 14:37:20;;;;;;;1999.90;999.90;;;;;;;;;;4995312;28;20206;-73
2023/02/27 14:40:06;;;;;;;1999.90;999.90;;;;;;;;;;4995704;28;20290;-72
2023/02/27 14:42:54;;;;;;;1999.90;999.90;;;;;;;;;;4995267;28;20279;-72
2023/02/27 14:45:41;;;;;;;1999.90;999.90;;;;;;;;;;4994011;28;20405;-72
2023/02/27 14:48:27;;;;;;;1999.90;999.90;;;;;;;;;;4995370;28;20262;-72
2023/02/27 14:51:12;;;;;;;1999.90;999.90;;;;;;;;;;4995142;28;20718;-72
2023/02/27 14:54:01;;;;;;;1999.90;999.90;;;;;;;;;;4995420;28;20229;-72
2023/02/27 14:56:53;;;;;;;1999.90;999.90;;;;;;;;;;4994864;28;20210;-72
2023/02/27 14:59:41;;;;;;;1999.90;999.90;;;;;;;;;;4995184;28;20761;-72
2023/02/27 15:02:29;;;;;;;1999.90;999.90;;;;;;;;;;4994798;28;20611;-72
2023/02/27 15:05:15;;;;;;;1999.90;999.90;;;;;;;;;;4994619;28;20216;-72
2023/02/27 15:08:00;;;;;;;1999.90;999.90;;;;;;;;;;4994992;28;20276;-72
2023/02/27 15:10:45;;;;;;;1999.90;999.90;;;;;;;;;;4994525;28;20219;-73
2023/02/27 15:13:31;;;;;;;1999.90;999.90;;;;;;;;;;4994687;28;20231;-72
2023/02/27 15:16:21;;;;;;;1999.90;999.90;;;;;;;;;;4994358;28;20209;-72
2023/02/27 15:19:15;;;;;;;1999.90;999.90;;;;;;;;;;4994776;28;20240;-72
2023/02/27 15:22:01;;;;;;;1999.90;999.90;;;;;;;;;;4994594;28;20196;-72
2023/02/27 15:24:46;;;;;;;1999.90;999.90;;;;;;;;;;4994309;28;20695;-72
2023/02/27 15:27:32;;;;;;;1999.90;999.90;;;;;;;;;;4994027;28;20291;-73
2023/02/27 15:30:19;;;;;;;1999.90;999.90;;;;;;;;;;4994449;28;20214;-72
2023/02/27 15:33:05;;;;;;;1999.90;999.90;;;;;;;;;;4994390;28;20246;-72
2023/02/27 15:35:52;;;;;;;1999.90;999.90;;;;;;;;;;4994246;28;20212;-72
2023/02/27 15:38:37;;;;;;;1999.90;999.90;;;;;;;;;;4994139;28;20884;-72